sensor_id;sensor_type;location;lat;lon;timestamp;P1;durP1;ratioP1;P2;durP2;ratioP2
35074;SDS011;21260;34.984;32.490;2022-09-13T00:02:12;18.17;;;5.10;;
35074;SDS011;21260;34.984;32.490;2022-09-13T00:04:38;16.70;;;4.43;;
35074;SDS011;21260;34.984;32.490;2022-09-13T00:07:05;19.90;;;5.30;;
35074;SDS011;21260;34.984;32.490;2022-09-13T00:09:32;15.50;;;4.33;;
35074;SDS011;21260;34.984;32.490;2022-09-13T00:12:01;19.13;;;4.63;;
35074;SDS011;21260;34.984;32.490;2022-09-13T00:14:28;16.43;;;4.73;;
35074;SDS011;21260;34.984;32.490;2022-09-13T00:16:54;11.07;;;4.40;;
35074;SDS011;21260;34.984;32.490;2022-09-13T00:19:20;20.73;;;5.20;;
35074;SDS011;21260;34.984;32.490;2022-09-13T00:21:46;20.60;;;4.63;;
35074;SDS011;21260;34.984;32.490;2022-09-13T00:24:13;20.35;;;4.70;;
35074;SDS011;21260;34.984;32.490;2022-09-13T00:26:39;17.55;;;4.70;;
35074;SDS011;21260;34.984;32.490;2022-09-13T00:29:05;13.55;;;4.70;;
35074;SDS011;21260;34.984;32.490;2022-09-13T00:31:31;15.88;;;4.53;;
35074;SDS011;21260;34.984;32.490;2022-09-13T00:33:59;14.15;;;4.63;;
35074;SDS011;21260;34.984;32.490;2022-09-13T00:36:25;19.60;;;5.00;;
35074;SDS011;21260;34.984;32.490;2022-09-13T00:38:52;20.50;;;4.43;;
35074;SDS011;21260;34.984;32.490;2022-09-13T00:41:19;13.07;;;4.22;;
35074;SDS011;21260;34.984;32.490;2022-09-13T00:43:47;14.60;;;4.80;;
35074;SDS011;21260;34.984;32.490;2022-09-13T00:52:05;15.17;;;4.07;;
35074;SDS011;21260;34.984;32.490;2022-09-13T00:54:41;12.85;;;4.20;;
35074;SDS011;21260;34.984;32.490;2022-09-13T00:57:25;17.03;;;4.40;;
35074;SDS011;21260;34.984;32.490;2022-09-13T01:00:04;14.40;;;4.43;;
35074;SDS011;21260;34.984;32.490;2022-09-13T01:02:39;14.07;;;4.73;;
35074;SDS011;21260;34.984;32.490;2022-09-13T01:05:10;13.30;;;4.60;;
35074;SDS011;21260;34.984;32.490;2022-09-13T01:07:43;15.02;;;4.50;;
35074;SDS011;21260;34.984;32.490;2022-09-13T01:10:10;13.00;;;4.07;;
35074;SDS011;21260;34.984;32.490;2022-09-13T01:15:40;9.93;;;3.67;;
35074;SDS011;21260;34.984;32.490;2022-09-13T01:18:07;15.00;;;4.40;;
35074;SDS011;21260;34.984;32.490;2022-09-13T01:39:02;17.60;;;4.00;;
35074;SDS011;21260;34.984;32.490;2022-09-13T01:47:37;13.47;;;4.33;;
35074;SDS011;21260;34.984;32.490;2022-09-13T01:53:28;14.43;;;4.68;;
35074;SDS011;21260;34.984;32.490;2022-09-13T01:56:29;16.50;;;4.47;;
35074;SDS011;21260;34.984;32.490;2022-09-13T02:02:23;9.80;;;3.90;;
35074;SDS011;21260;34.984;32.490;2022-09-13T02:04:54;16.67;;;4.83;;
35074;SDS011;21260;34.984;32.490;2022-09-13T02:08:11;14.60;;;4.43;;
35074;SDS011;21260;34.984;32.490;2022-09-13T02:10:43;15.63;;;4.00;;
35074;SDS011;21260;34.984;32.490;2022-09-13T02:13:20;14.35;;;4.32;;
35074;SDS011;21260;34.984;32.490;2022-09-13T02:15:58;15.37;;;4.20;;
35074;SDS011;21260;34.984;32.490;2022-09-13T02:18:37;15.90;;;4.00;;
35074;SDS011;21260;34.984;32.490;2022-09-13T02:21:11;13.97;;;4.17;;
35074;SDS011;21260;34.984;32.490;2022-09-13T02:23:50;18.63;;;4.27;;
35074;SDS011;21260;34.984;32.490;2022-09-13T02:26:58;12.13;;;4.45;;
35074;SDS011;21260;34.984;32.490;2022-09-13T02:29:32;13.00;;;4.47;;
35074;SDS011;21260;34.984;32.490;2022-09-13T02:32:08;17.20;;;4.43;;
35074;SDS011;21260;34.984;32.490;2022-09-13T02:35:06;11.30;;;3.93;;
35074;SDS011;21260;34.984;32.490;2022-09-13T02:37:51;13.32;;;4.13;;
35074;SDS011;21260;34.984;32.490;2022-09-13T02:40:28;12.97;;;4.43;;
35074;SDS011;21260;34.984;32.490;2022-09-13T02:43:21;14.77;;;4.60;;
35074;SDS011;21260;34.984;32.490;2022-09-13T02:46:09;17.55;;;4.63;;
35074;SDS011;21260;34.984;32.490;2022-09-13T02:58:05;18.37;;;4.47;;
35074;SDS011;21260;34.984;32.490;2022-09-13T03:00:35;16.87;;;4.20;;
35074;SDS011;21260;34.984;32.490;2022-09-13T03:03:02;12.50;;;4.33;;
35074;SDS011;21260;34.984;32.490;2022-09-13T03:05:35;20.20;;;4.93;;
35074;SDS011;21260;34.984;32.490;2022-09-13T03:08:03;18.60;;;4.90;;
35074;SDS011;21260;34.984;32.490;2022-09-13T03:23:44;17.23;;;4.95;;
35074;SDS011;21260;34.984;32.490;2022-09-13T03:32:48;19.70;;;5.17;;
35074;SDS011;21260;34.984;32.490;2022-09-13T03:35:56;14.40;;;4.80;;
35074;SDS011;21260;34.984;32.490;2022-09-13T03:38:38;14.80;;;4.45;;
35074;SDS011;21260;34.984;32.490;2022-09-13T03:41:18;14.93;;;4.45;;
35074;SDS011;21260;34.984;32.490;2022-09-13T03:44:01;16.58;;;4.93;;
35074;SDS011;21260;34.984;32.490;2022-09-13T03:46:42;20.30;;;5.23;;
35074;SDS011;21260;34.984;32.490;2022-09-13T03:49:13;19.58;;;5.07;;
35074;SDS011;21260;34.984;32.490;2022-09-13T03:51:45;16.63;;;5.23;;
35074;SDS011;21260;34.984;32.490;2022-09-13T03:54:18;11.33;;;4.27;;
35074;SDS011;21260;34.984;32.490;2022-09-13T03:57:06;14.73;;;4.53;;
35074;SDS011;21260;34.984;32.490;2022-09-13T03:59:40;19.25;;;5.28;;
35074;SDS011;21260;34.984;32.490;2022-09-13T04:02:13;16.27;;;4.93;;
35074;SDS011;21260;34.984;32.490;2022-09-13T04:04:42;13.18;;;5.22;;
35074;SDS011;21260;34.984;32.490;2022-09-13T04:07:12;18.17;;;5.70;;
35074;SDS011;21260;34.984;32.490;2022-09-13T04:09:44;14.80;;;4.77;;
35074;SDS011;21260;34.984;32.490;2022-09-13T04:12:12;18.00;;;5.30;;
35074;SDS011;21260;34.984;32.490;2022-09-13T04:14:40;16.10;;;5.45;;
35074;SDS011;21260;34.984;32.490;2022-09-13T04:17:10;16.15;;;4.88;;
35074;SDS011;21260;34.984;32.490;2022-09-13T04:19:38;18.52;;;5.18;;
35074;SDS011;21260;34.984;32.490;2022-09-13T04:22:04;17.42;;;4.80;;
35074;SDS011;21260;34.984;32.490;2022-09-13T04:24:31;12.93;;;4.20;;
35074;SDS011;21260;34.984;32.490;2022-09-13T04:26:57;17.70;;;4.68;;
35074;SDS011;21260;34.984;32.490;2022-09-13T04:29:25;13.75;;;4.40;;
35074;SDS011;21260;34.984;32.490;2022-09-13T04:31:53;15.40;;;5.28;;
35074;SDS011;21260;34.984;32.490;2022-09-13T04:34:20;19.70;;;4.85;;
35074;SDS011;21260;34.984;32.490;2022-09-13T04:36:47;17.23;;;4.80;;
35074;SDS011;21260;34.984;32.490;2022-09-13T04:39:16;20.63;;;5.15;;
35074;SDS011;21260;34.984;32.490;2022-09-13T04:41:44;16.63;;;4.47;;
35074;SDS011;21260;34.984;32.490;2022-09-13T04:44:16;14.48;;;4.53;;
35074;SDS011;21260;34.984;32.490;2022-09-13T04:46:47;16.97;;;4.57;;
35074;SDS011;21260;34.984;32.490;2022-09-13T04:49:16;13.07;;;4.47;;
35074;SDS011;21260;34.984;32.490;2022-09-13T04:51:45;13.40;;;4.47;;
35074;SDS011;21260;34.984;32.490;2022-09-13T04:54:12;16.10;;;5.00;;
35074;SDS011;21260;34.984;32.490;2022-09-13T04:56:39;14.48;;;4.18;;
35074;SDS011;21260;34.984;32.490;2022-09-13T04:59:05;11.82;;;4.25;;
35074;SDS011;21260;34.984;32.490;2022-09-13T05:01:33;17.65;;;4.75;;
35074;SDS011;21260;34.984;32.490;2022-09-13T05:03:59;11.30;;;4.95;;
35074;SDS011;21260;34.984;32.490;2022-09-13T05:06:25;13.02;;;4.28;;
35074;SDS011;21260;34.984;32.490;2022-09-13T05:08:53;13.82;;;4.85;;
35074;SDS011;21260;34.984;32.490;2022-09-13T05:11:21;12.75;;;4.03;;
35074;SDS011;21260;34.984;32.490;2022-09-13T05:13:53;12.20;;;4.25;;
35074;SDS011;21260;34.984;32.490;2022-09-13T05:16:23;18.70;;;5.07;;
35074;SDS011;21260;34.984;32.490;2022-09-13T05:18:56;16.70;;;4.75;;
35074;SDS011;21260;34.984;32.490;2022-09-13T05:21:24;13.23;;;4.15;;
35074;SDS011;21260;34.984;32.490;2022-09-13T05:23:52;14.18;;;4.25;;
35074;SDS011;21260;34.984;32.490;2022-09-13T05:26:21;22.45;;;4.65;;
35074;SDS011;21260;34.984;32.490;2022-09-13T05:28:51;16.98;;;4.38;;
35074;SDS011;21260;34.984;32.490;2022-09-13T05:31:19;21.85;;;4.63;;
35074;SDS011;21260;34.984;32.490;2022-09-13T05:33:54;16.08;;;4.03;;
35074;SDS011;21260;34.984;32.490;2022-09-13T05:36:29;15.48;;;4.38;;
35074;SDS011;21260;34.984;32.490;2022-09-13T05:38:55;13.27;;;4.57;;
35074;SDS011;21260;34.984;32.490;2022-09-13T05:41:22;19.48;;;4.85;;
35074;SDS011;21260;34.984;32.490;2022-09-13T05:43:49;18.33;;;4.65;;
35074;SDS011;21260;34.984;32.490;2022-09-13T05:46:16;17.15;;;4.40;;
35074;SDS011;21260;34.984;32.490;2022-09-13T05:48:44;15.68;;;4.95;;
35074;SDS011;21260;34.984;32.490;2022-09-13T05:51:13;12.55;;;4.18;;
35074;SDS011;21260;34.984;32.490;2022-09-13T05:53:46;14.48;;;4.40;;
35074;SDS011;21260;34.984;32.490;2022-09-13T05:56:20;15.95;;;4.30;;
35074;SDS011;21260;34.984;32.490;2022-09-13T05:58:50;19.17;;;4.70;;
35074;SDS011;21260;34.984;32.490;2022-09-13T06:01:20;16.73;;;4.78;;
35074;SDS011;21260;34.984;32.490;2022-09-13T06:03:50;13.00;;;3.97;;
35074;SDS011;21260;34.984;32.490;2022-09-13T06:06:19;15.15;;;4.10;;
35074;SDS011;21260;34.984;32.490;2022-09-13T06:08:48;15.85;;;4.35;;
35074;SDS011;21260;34.984;32.490;2022-09-13T06:11:21;13.88;;;4.50;;
35074;SDS011;21260;34.984;32.490;2022-09-13T06:13:51;19.30;;;4.38;;
35074;SDS011;21260;34.984;32.490;2022-09-13T06:16:18;14.15;;;4.15;;
35074;SDS011;21260;34.984;32.490;2022-09-13T06:18:45;15.60;;;4.03;;
35074;SDS011;21260;34.984;32.490;2022-09-13T06:21:19;16.77;;;4.28;;
35074;SDS011;21260;34.984;32.490;2022-09-13T06:23:49;15.18;;;4.28;;
35074;SDS011;21260;34.984;32.490;2022-09-13T06:26:22;11.52;;;4.13;;
35074;SDS011;21260;34.984;32.490;2022-09-13T06:28:52;16.33;;;5.22;;
35074;SDS011;21260;34.984;32.490;2022-09-13T06:31:22;15.52;;;4.18;;
35074;SDS011;21260;34.984;32.490;2022-09-13T06:33:56;12.32;;;3.72;;
35074;SDS011;21260;34.984;32.490;2022-09-13T06:36:26;16.65;;;4.47;;
35074;SDS011;21260;34.984;32.490;2022-09-13T06:38:54;9.50;;;3.35;;
35074;SDS011;21260;34.984;32.490;2022-09-13T06:41:21;16.38;;;4.30;;
35074;SDS011;21260;34.984;32.490;2022-09-13T06:43:53;12.80;;;3.63;;
35074;SDS011;21260;34.984;32.490;2022-09-13T06:46:23;11.82;;;3.85;;
35074;SDS011;21260;34.984;32.490;2022-09-13T06:48:52;14.43;;;3.88;;
35074;SDS011;21260;34.984;32.490;2022-09-13T06:51:21;10.95;;;3.20;;
35074;SDS011;21260;34.984;32.490;2022-09-13T06:53:50;14.82;;;3.90;;
35074;SDS011;21260;34.984;32.490;2022-09-13T06:56:41;11.05;;;3.03;;
35074;SDS011;21260;34.984;32.490;2022-09-13T06:59:09;12.27;;;3.50;;
35074;SDS011;21260;34.984;32.490;2022-09-13T07:01:36;12.30;;;3.25;;
35074;SDS011;21260;34.984;32.490;2022-09-13T07:04:08;9.73;;;3.20;;
35074;SDS011;21260;34.984;32.490;2022-09-13T07:06:38;12.43;;;3.10;;
35074;SDS011;21260;34.984;32.490;2022-09-13T07:09:13;12.93;;;3.47;;
35074;SDS011;21260;34.984;32.490;2022-09-13T07:11:44;12.68;;;3.25;;
35074;SDS011;21260;34.984;32.490;2022-09-13T07:14:13;11.73;;;2.92;;
35074;SDS011;21260;34.984;32.490;2022-09-13T07:16:46;15.07;;;3.30;;
35074;SDS011;21260;34.984;32.490;2022-09-13T07:19:17;13.73;;;3.33;;
35074;SDS011;21260;34.984;32.490;2022-09-13T07:21:50;9.70;;;4.00;;
35074;SDS011;21260;34.984;32.490;2022-09-13T07:24:18;10.70;;;3.45;;
35074;SDS011;21260;34.984;32.490;2022-09-13T07:26:47;12.20;;;3.08;;
35074;SDS011;21260;34.984;32.490;2022-09-13T07:29:16;17.92;;;3.40;;
35074;SDS011;21260;34.984;32.490;2022-09-13T07:31:47;9.80;;;3.08;;
35074;SDS011;21260;34.984;32.490;2022-09-13T07:34:19;10.82;;;3.30;;
35074;SDS011;21260;34.984;32.490;2022-09-13T07:36:50;10.13;;;3.25;;
35074;SDS011;21260;34.984;32.490;2022-09-13T08:36:14;13.32;;;3.67;;
35074;SDS011;21260;34.984;32.490;2022-09-13T08:38:48;12.75;;;3.42;;
35074;SDS011;21260;34.984;32.490;2022-09-13T08:44:32;10.13;;;2.60;;
35074;SDS011;21260;34.984;32.490;2022-09-13T08:56:05;9.77;;;3.40;;
35074;SDS011;21260;34.984;32.490;2022-09-13T09:07:20;9.18;;;3.30;;
35074;SDS011;21260;34.984;32.490;2022-09-13T09:09:52;16.55;;;3.67;;
35074;SDS011;21260;34.984;32.490;2022-09-13T09:20:47;12.48;;;2.95;;
35074;SDS011;21260;34.984;32.490;2022-09-13T09:25:54;8.82;;;3.30;;
35074;SDS011;21260;34.984;32.490;2022-09-13T09:28:35;11.20;;;3.55;;
35074;SDS011;21260;34.984;32.490;2022-09-13T10:31:33;13.90;;;3.83;;
35074;SDS011;21260;34.984;32.490;2022-09-13T10:42:40;9.70;;;4.50;;
35074;SDS011;21260;34.984;32.490;2022-09-13T10:45:25;14.18;;;4.65;;
35074;SDS011;21260;34.984;32.490;2022-09-13T10:48:03;10.10;;;4.57;;
35074;SDS011;21260;34.984;32.490;2022-09-13T10:51:14;9.82;;;4.43;;
35074;SDS011;21260;34.984;32.490;2022-09-13T10:53:45;13.20;;;5.43;;
35074;SDS011;21260;34.984;32.490;2022-09-13T10:56:19;13.05;;;4.75;;
35074;SDS011;21260;34.984;32.490;2022-09-13T10:59:13;6.95;;;4.75;;
35074;SDS011;21260;34.984;32.490;2022-09-13T11:02:01;10.45;;;5.03;;
35074;SDS011;21260;34.984;32.490;2022-09-13T11:04:50;13.57;;;5.97;;
35074;SDS011;21260;34.984;32.490;2022-09-13T11:07:48;11.23;;;5.43;;
35074;SDS011;21260;34.984;32.490;2022-09-13T11:28:41;8.40;;;5.13;;
35074;SDS011;21260;34.984;32.490;2022-09-13T11:32:02;13.48;;;5.70;;
35074;SDS011;21260;34.984;32.490;2022-09-13T11:35:11;17.17;;;5.38;;
35074;SDS011;21260;34.984;32.490;2022-09-13T11:52:56;8.75;;;3.70;;
35074;SDS011;21260;34.984;32.490;2022-09-13T11:55:37;5.47;;;3.63;;
35074;SDS011;21260;34.984;32.490;2022-09-13T11:58:28;11.30;;;4.28;;
35074;SDS011;21260;34.984;32.490;2022-09-13T12:00:57;12.68;;;4.20;;
35074;SDS011;21260;34.984;32.490;2022-09-13T12:06:22;10.95;;;4.13;;
35074;SDS011;21260;34.984;32.490;2022-09-13T12:09:17;7.65;;;3.63;;
35074;SDS011;21260;34.984;32.490;2022-09-13T12:14:36;8.43;;;3.70;;
35074;SDS011;21260;34.984;32.490;2022-09-13T12:17:30;11.05;;;5.10;;
35074;SDS011;21260;34.984;32.490;2022-09-13T12:20:20;8.80;;;4.30;;
35074;SDS011;21260;34.984;32.490;2022-09-13T12:23:11;6.78;;;3.70;;
35074;SDS011;21260;34.984;32.490;2022-09-13T12:26:34;8.05;;;4.43;;
35074;SDS011;21260;34.984;32.490;2022-09-13T12:29:27;8.80;;;4.43;;
35074;SDS011;21260;34.984;32.490;2022-09-13T12:32:15;8.30;;;4.05;;
35074;SDS011;21260;34.984;32.490;2022-09-13T12:43:04;11.27;;;5.20;;
35074;SDS011;21260;34.984;32.490;2022-09-13T13:03:43;10.90;;;4.75;;
35074;SDS011;21260;34.984;32.490;2022-09-13T13:06:28;9.05;;;4.40;;
35074;SDS011;21260;34.984;32.490;2022-09-13T13:09:21;8.55;;;4.78;;
35074;SDS011;21260;34.984;32.490;2022-09-13T13:12:11;12.93;;;4.25;;
35074;SDS011;21260;34.984;32.490;2022-09-13T13:15:04;11.65;;;5.50;;
35074;SDS011;21260;34.984;32.490;2022-09-13T13:17:48;9.43;;;5.28;;
35074;SDS011;21260;34.984;32.490;2022-09-13T13:23:31;16.65;;;4.95;;
35074;SDS011;21260;34.984;32.490;2022-09-13T13:29:19;10.40;;;5.65;;
35074;SDS011;21260;34.984;32.490;2022-09-13T13:39:43;6.28;;;4.53;;
35074;SDS011;21260;34.984;32.490;2022-09-13T13:55:30;11.75;;;4.53;;
35074;SDS011;21260;34.984;32.490;2022-09-13T14:00:58;9.80;;;5.18;;
35074;SDS011;21260;34.984;32.490;2022-09-13T14:06:49;15.07;;;5.10;;
35074;SDS011;21260;34.984;32.490;2022-09-13T14:09:41;10.45;;;5.30;;
35074;SDS011;21260;34.984;32.490;2022-09-13T14:12:18;10.60;;;4.90;;
35074;SDS011;21260;34.984;32.490;2022-09-13T14:21:03;9.05;;;5.35;;
35074;SDS011;21260;34.984;32.490;2022-09-13T14:26:57;12.25;;;5.22;;
35074;SDS011;21260;34.984;32.490;2022-09-13T14:32:26;13.85;;;5.78;;
35074;SDS011;21260;34.984;32.490;2022-09-13T14:37:32;11.05;;;6.22;;
35074;SDS011;21260;34.984;32.490;2022-09-13T14:42:42;15.18;;;5.78;;
35074;SDS011;21260;34.984;32.490;2022-09-13T14:45:15;11.80;;;5.15;;
35074;SDS011;21260;34.984;32.490;2022-09-13T14:54:17;12.35;;;6.68;;
35074;SDS011;21260;34.984;32.490;2022-09-13T14:57:05;14.98;;;7.28;;
35074;SDS011;21260;34.984;32.490;2022-09-13T14:59:47;12.90;;;7.13;;
35074;SDS011;21260;34.984;32.490;2022-09-13T15:02:19;10.55;;;5.88;;
35074;SDS011;21260;34.984;32.490;2022-09-13T15:04:51;8.65;;;5.70;;
35074;SDS011;21260;34.984;32.490;2022-09-13T15:07:29;12.30;;;6.32;;
35074;SDS011;21260;34.984;32.490;2022-09-13T15:10:18;11.35;;;6.53;;
35074;SDS011;21260;34.984;32.490;2022-09-13T15:12:53;12.23;;;6.43;;
35074;SDS011;21260;34.984;32.490;2022-09-13T15:15:39;12.50;;;6.97;;
35074;SDS011;21260;34.984;32.490;2022-09-13T15:23:40;13.43;;;7.47;;
35074;SDS011;21260;34.984;32.490;2022-09-13T15:26:23;17.30;;;7.57;;
35074;SDS011;21260;34.984;32.490;2022-09-13T15:28:51;12.13;;;7.22;;
35074;SDS011;21260;34.984;32.490;2022-09-13T15:31:33;16.58;;;7.93;;
35074;SDS011;21260;34.984;32.490;2022-09-13T15:34:10;12.05;;;7.53;;
35074;SDS011;21260;34.984;32.490;2022-09-13T15:36:43;14.63;;;7.60;;
35074;SDS011;21260;34.984;32.490;2022-09-13T15:39:46;15.15;;;7.38;;
35074;SDS011;21260;34.984;32.490;2022-09-13T15:42:25;14.65;;;8.27;;
35074;SDS011;21260;34.984;32.490;2022-09-13T15:44:52;14.65;;;7.90;;
35074;SDS011;21260;34.984;32.490;2022-09-13T15:47:18;11.73;;;7.70;;
35074;SDS011;21260;34.984;32.490;2022-09-13T15:49:47;13.30;;;7.45;;
35074;SDS011;21260;34.984;32.490;2022-09-13T15:52:16;14.00;;;7.88;;
35074;SDS011;21260;34.984;32.490;2022-09-13T15:54:45;16.38;;;8.13;;
35074;SDS011;21260;34.984;32.490;2022-09-13T15:57:16;15.02;;;8.07;;
35074;SDS011;21260;34.984;32.490;2022-09-13T15:59:48;14.00;;;8.15;;
35074;SDS011;21260;34.984;32.490;2022-09-13T16:02:19;14.77;;;8.10;;
35074;SDS011;21260;34.984;32.490;2022-09-13T16:04:55;11.98;;;8.57;;
35074;SDS011;21260;34.984;32.490;2022-09-13T16:07:23;16.15;;;8.75;;
35074;SDS011;21260;34.984;32.490;2022-09-13T16:09:51;16.27;;;8.70;;
35074;SDS011;21260;34.984;32.490;2022-09-13T16:12:18;13.23;;;8.38;;
35074;SDS011;21260;34.984;32.490;2022-09-13T16:14:49;14.35;;;8.52;;
35074;SDS011;21260;34.984;32.490;2022-09-13T16:17:23;10.80;;;8.70;;
35074;SDS011;21260;34.984;32.490;2022-09-13T16:19:52;19.17;;;8.75;;
35074;SDS011;21260;34.984;32.490;2022-09-13T16:22:19;18.40;;;8.88;;
35074;SDS011;21260;34.984;32.490;2022-09-13T16:24:47;16.55;;;9.43;;
35074;SDS011;21260;34.984;32.490;2022-09-13T16:27:14;12.27;;;9.70;;
35074;SDS011;21260;34.984;32.490;2022-09-13T16:29:42;13.10;;;8.90;;
35074;SDS011;21260;34.984;32.490;2022-09-13T16:32:09;16.85;;;9.35;;
35074;SDS011;21260;34.984;32.490;2022-09-13T16:34:36;12.05;;;8.55;;
35074;SDS011;21260;34.984;32.490;2022-09-13T16:37:03;14.40;;;9.07;;
35074;SDS011;21260;34.984;32.490;2022-09-13T16:39:30;16.38;;;8.60;;
35074;SDS011;21260;34.984;32.490;2022-09-13T16:41:58;16.85;;;9.00;;
35074;SDS011;21260;34.984;32.490;2022-09-13T16:44:29;14.38;;;8.98;;
35074;SDS011;21260;34.984;32.490;2022-09-13T16:46:56;12.05;;;8.90;;
35074;SDS011;21260;34.984;32.490;2022-09-13T16:49:23;12.65;;;8.93;;
35074;SDS011;21260;34.984;32.490;2022-09-13T16:51:53;15.32;;;8.68;;
35074;SDS011;21260;34.984;32.490;2022-09-13T16:54:28;19.25;;;9.00;;
35074;SDS011;21260;34.984;32.490;2022-09-13T16:57:09;15.05;;;9.95;;
35074;SDS011;21260;34.984;32.490;2022-09-13T16:59:39;18.40;;;10.05;;
35074;SDS011;21260;34.984;32.490;2022-09-13T17:02:13;14.55;;;9.48;;
35074;SDS011;21260;34.984;32.490;2022-09-13T17:04:41;13.50;;;9.25;;
35074;SDS011;21260;34.984;32.490;2022-09-13T17:07:11;13.93;;;8.85;;
35074;SDS011;21260;34.984;32.490;2022-09-13T17:09:39;17.58;;;9.55;;
35074;SDS011;21260;34.984;32.490;2022-09-13T17:12:07;14.70;;;9.57;;
35074;SDS011;21260;34.984;32.490;2022-09-13T17:14:38;13.80;;;9.45;;
35074;SDS011;21260;34.984;32.490;2022-09-13T17:17:12;16.92;;;9.18;;
35074;SDS011;21260;34.984;32.490;2022-09-13T17:19:40;17.48;;;9.88;;
35074;SDS011;21260;34.984;32.490;2022-09-13T17:22:08;15.80;;;9.52;;
35074;SDS011;21260;34.984;32.490;2022-09-13T17:24:36;12.77;;;9.43;;
35074;SDS011;21260;34.984;32.490;2022-09-13T17:27:10;12.63;;;9.65;;
35074;SDS011;21260;34.984;32.490;2022-09-13T17:29:40;14.98;;;10.38;;
35074;SDS011;21260;34.984;32.490;2022-09-13T17:32:15;12.13;;;9.57;;
35074;SDS011;21260;34.984;32.490;2022-09-13T17:34:42;18.42;;;10.48;;
35074;SDS011;21260;34.984;32.490;2022-09-13T17:37:08;12.82;;;9.48;;
35074;SDS011;21260;34.984;32.490;2022-09-13T17:39:35;19.27;;;10.57;;
35074;SDS011;21260;34.984;32.490;2022-09-13T17:42:01;14.82;;;9.68;;
35074;SDS011;21260;34.984;32.490;2022-09-13T17:44:28;15.48;;;9.45;;
35074;SDS011;21260;34.984;32.490;2022-09-13T17:46:55;18.08;;;10.10;;
35074;SDS011;21260;34.984;32.490;2022-09-13T17:49:22;17.65;;;10.30;;
35074;SDS011;21260;34.984;32.490;2022-09-13T17:51:48;14.88;;;10.38;;
35074;SDS011;21260;34.984;32.490;2022-09-13T17:54:17;18.77;;;10.57;;
35074;SDS011;21260;34.984;32.490;2022-09-13T17:56:51;17.83;;;10.60;;
35074;SDS011;21260;34.984;32.490;2022-09-13T17:59:25;15.20;;;10.40;;
35074;SDS011;21260;34.984;32.490;2022-09-13T18:02:01;14.82;;;10.98;;
35074;SDS011;21260;34.984;32.490;2022-09-13T18:04:39;16.10;;;10.60;;
35074;SDS011;21260;34.984;32.490;2022-09-13T18:07:09;15.80;;;10.70;;
35074;SDS011;21260;34.984;32.490;2022-09-13T18:09:40;14.15;;;10.85;;
35074;SDS011;21260;34.984;32.490;2022-09-13T18:12:15;18.00;;;9.98;;
35074;SDS011;21260;34.984;32.490;2022-09-13T18:14:51;17.98;;;10.35;;
35074;SDS011;21260;34.984;32.490;2022-09-13T18:17:31;14.15;;;10.23;;
35074;SDS011;21260;34.984;32.490;2022-09-13T18:20:01;14.88;;;10.02;;
35074;SDS011;21260;34.984;32.490;2022-09-13T18:22:35;16.63;;;10.93;;
35074;SDS011;21260;34.984;32.490;2022-09-13T18:25:06;13.82;;;10.50;;
35074;SDS011;21260;34.984;32.490;2022-09-13T18:27:33;15.93;;;10.90;;
35074;SDS011;21260;34.984;32.490;2022-09-13T18:29:59;14.45;;;10.20;;
35074;SDS011;21260;34.984;32.490;2022-09-13T18:32:30;14.50;;;10.40;;
35074;SDS011;21260;34.984;32.490;2022-09-13T18:35:00;13.63;;;9.90;;
35074;SDS011;21260;34.984;32.490;2022-09-13T18:37:27;12.30;;;10.13;;
35074;SDS011;21260;34.984;32.490;2022-09-13T18:40:00;14.23;;;10.38;;
35074;SDS011;21260;34.984;32.490;2022-09-13T18:42:30;12.60;;;9.88;;
35074;SDS011;21260;34.984;32.490;2022-09-13T18:45:07;16.50;;;10.27;;
35074;SDS011;21260;34.984;32.490;2022-09-13T18:47:34;12.73;;;10.23;;
35074;SDS011;21260;34.984;32.490;2022-09-13T18:50:01;16.35;;;10.35;;
35074;SDS011;21260;34.984;32.490;2022-09-13T18:52:27;18.95;;;11.05;;
35074;SDS011;21260;34.984;32.490;2022-09-13T18:54:54;17.40;;;10.73;;
35074;SDS011;21260;34.984;32.490;2022-09-13T18:57:28;17.70;;;10.07;;
35074;SDS011;21260;34.984;32.490;2022-09-13T18:59:56;14.18;;;9.82;;
35074;SDS011;21260;34.984;32.490;2022-09-13T19:02:24;15.35;;;10.02;;
35074;SDS011;21260;34.984;32.490;2022-09-13T19:04:51;16.50;;;10.20;;
35074;SDS011;21260;34.984;32.490;2022-09-13T19:07:21;11.95;;;9.88;;
35074;SDS011;21260;34.984;32.490;2022-09-13T19:09:48;17.90;;;10.68;;
35074;SDS011;21260;34.984;32.490;2022-09-13T19:12:15;16.77;;;10.73;;
35074;SDS011;21260;34.984;32.490;2022-09-13T19:14:42;14.48;;;10.50;;
35074;SDS011;21260;34.984;32.490;2022-09-13T19:17:08;12.75;;;9.68;;
35074;SDS011;21260;34.984;32.490;2022-09-13T19:19:42;15.50;;;10.07;;
35074;SDS011;21260;34.984;32.490;2022-09-13T19:22:09;15.32;;;10.45;;
35074;SDS011;21260;34.984;32.490;2022-09-13T19:24:41;14.15;;;9.75;;
35074;SDS011;21260;34.984;32.490;2022-09-13T19:27:10;14.73;;;10.20;;
35074;SDS011;21260;34.984;32.490;2022-09-13T19:29:42;12.70;;;10.15;;
35074;SDS011;21260;34.984;32.490;2022-09-13T19:32:10;13.80;;;10.27;;
35074;SDS011;21260;34.984;32.490;2022-09-13T19:34:38;16.08;;;10.48;;
35074;SDS011;21260;34.984;32.490;2022-09-13T19:37:24;14.10;;;10.20;;
35074;SDS011;21260;34.984;32.490;2022-09-13T19:39:54;17.10;;;10.27;;
35074;SDS011;21260;34.984;32.490;2022-09-13T19:42:23;20.02;;;11.25;;
35074;SDS011;21260;34.984;32.490;2022-09-13T19:44:52;18.05;;;9.77;;
35074;SDS011;21260;34.984;32.490;2022-09-13T19:47:22;18.42;;;10.30;;
35074;SDS011;21260;34.984;32.490;2022-09-13T19:49:49;13.43;;;9.88;;
35074;SDS011;21260;34.984;32.490;2022-09-13T19:52:16;12.77;;;10.15;;
35074;SDS011;21260;34.984;32.490;2022-09-13T19:54:43;16.95;;;9.65;;
35074;SDS011;21260;34.984;32.490;2022-09-13T19:57:10;15.25;;;10.45;;
35074;SDS011;21260;34.984;32.490;2022-09-13T19:59:37;15.13;;;9.52;;
35074;SDS011;21260;34.984;32.490;2022-09-13T20:02:07;14.25;;;10.73;;
35074;SDS011;21260;34.984;32.490;2022-09-13T20:04:39;13.63;;;9.98;;
35074;SDS011;21260;34.984;32.490;2022-09-13T20:07:06;13.18;;;10.20;;
35074;SDS011;21260;34.984;32.490;2022-09-13T20:09:36;16.50;;;11.65;;
35074;SDS011;21260;34.984;32.490;2022-09-13T20:12:06;15.20;;;10.20;;
35074;SDS011;21260;34.984;32.490;2022-09-13T20:14:35;14.38;;;11.15;;
35074;SDS011;21260;34.984;32.490;2022-09-13T20:17:03;12.77;;;10.50;;
35074;SDS011;21260;34.984;32.490;2022-09-13T20:19:31;20.67;;;10.98;;
35074;SDS011;21260;34.984;32.490;2022-09-13T20:21:57;14.85;;;10.10;;
35074;SDS011;21260;34.984;32.490;2022-09-13T20:24:24;14.90;;;10.48;;
35074;SDS011;21260;34.984;32.490;2022-09-13T20:26:50;15.10;;;11.05;;
35074;SDS011;21260;34.984;32.490;2022-09-13T20:29:20;16.10;;;10.20;;
35074;SDS011;21260;34.984;32.490;2022-09-13T20:31:46;12.00;;;9.73;;
35074;SDS011;21260;34.984;32.490;2022-09-13T20:34:13;14.15;;;10.40;;
35074;SDS011;21260;34.984;32.490;2022-09-13T20:36:39;16.90;;;9.85;;
35074;SDS011;21260;34.984;32.490;2022-09-13T20:39:09;15.68;;;9.77;;
35074;SDS011;21260;34.984;32.490;2022-09-13T20:41:36;16.15;;;9.98;;
35074;SDS011;21260;34.984;32.490;2022-09-13T20:44:04;14.13;;;10.30;;
35074;SDS011;21260;34.984;32.490;2022-09-13T20:46:31;14.65;;;10.05;;
35074;SDS011;21260;34.984;32.490;2022-09-13T20:48:58;17.70;;;9.93;;
35074;SDS011;21260;34.984;32.490;2022-09-13T20:51:25;16.48;;;9.95;;